Time;durP1;ratioP1;P1;durP2;ratioP2;P2;SDS_P1;SDS_P2;PMS_P1;PMS_P2;Temp;Humidity;BMP_temperature;BMP_pressure;BME280_temperature;BME280_humidity;BME280_pressure;Samples;Min_cycle;Max_cycle;Signal;HPM_P1;HPM_P2
2022/09/26 00:02:46;;;;;;;2.22;1.42;;;;;;;;;;10414755;28;20079;-62
2022/09/26 00:07:47;;;;;;;4.28;1.25;;;;;;;;;;10414385;28;20033;-62
2022/09/26 00:12:47;;;;;;;2.28;1.23;;;;;;;;;;10414412;28;20310;-62
2022/09/26 00:17:48;;;;;;;1.45;1.00;;;;;;;;;;10414186;28;20041;-61
2022/09/26 00:22:49;;;;;;;1.75;1.38;;;;;;;;;;10414730;28;20465;-62
2022/09/26 00:27:49;;;;;;;2.30;1.30;;;;;;;;;;10414300;28;20412;-61
2022/09/26 00:32:50;;;;;;;2.25;1.20;;;;;;;;;;10413826;28;20026;-62
2022/09/26 00:37:51;;;;;;;1.33;1.23;;;;;;;;;;10413789;28;20408;-61
2022/09/26 00:42:53;;;;;;;1.92;1.60;;;;;;;;;;10413759;28;20036;-62
2022/09/26 00:48:04;;;;;;;2.35;1.40;;;;;;;;;;10413506;28;20412;-61
2022/09/26 00:53:16;;;;;;;1.38;1.27;;;;;;;;;;10412045;28;20041;-61
2022/09/26 00:58:27;;;;;;;2.53;1.45;;;;;;;;;;10412762;28;20496;-62
2022/09/26 01:03:30;;;;;;;2.30;1.40;;;;;;;;;;10409966;28;20036;-62
2022/09/26 01:08:38;;;;;;;1.45;1.20;;;;;;;;;;10386840;28;20477;-62
2022/09/26 01:13:38;;;;;;;7.00;1.50;;;;;;;;;;10397096;28;20077;-62
2022/09/26 01:18:40;;;;;;;1.38;1.27;;;;;;;;;;10410331;28;20037;-63
2022/09/26 01:23:56;;;;;;;2.95;1.35;;;;;;;;;;10410312;28;20033;-62
2022/09/26 01:29:27;;;;;;;2.67;1.30;;;;;;;;;;10411284;28;20037;-63
2022/09/26 01:34:49;;;;;;;1.40;1.15;;;;;;;;;;10410922;28;20076;-61
2022/09/26 01:40:04;;;;;;;2.25;1.30;;;;;;;;;;10383277;28;20060;-63
2022/09/26 01:45:22;;;;;;;2.03;1.20;;;;;;;;;;10410546;28;20469;-62
2022/09/26 01:50:48;;;;;;;2.83;1.23;;;;;;;;;;10409716;28;20053;-62
2022/09/26 01:56:02;;;;;;;1.33;1.23;;;;;;;;;;10410529;28;20021;-62
2022/09/26 02:01:08;;;;;;;1.35;1.25;;;;;;;;;;10409365;28;20398;-62
2022/09/26 02:06:19;;;;;;;1.60;1.30;;;;;;;;;;10408904;28;20025;-63
2022/09/26 02:11:20;;;;;;;2.78;1.60;;;;;;;;;;10403284;28;20103;-63
2022/09/26 02:16:45;;;;;;;2.75;1.50;;;;;;;;;;10399923;28;20127;-62
2022/09/26 02:21:46;;;;;;;1.50;1.40;;;;;;;;;;10409623;28;20519;-63
2022/09/26 02:26:48;;;;;;;4.55;1.40;;;;;;;;;;10409140;28;20428;-63
2022/09/26 02:31:56;;;;;;;2.53;1.58;;;;;;;;;;10408183;28;20025;-62
2022/09/26 02:36:58;;;;;;;1.40;1.30;;;;;;;;;;10407489;28;20064;-62
2022/09/26 02:42:35;;;;;;;4.15;1.38;;;;;;;;;;10407661;28;20043;-62
2022/09/26 02:47:53;;;;;;;1.75;1.40;;;;;;;;;;10408072;28;20029;-62
2022/09/26 02:53:44;;;;;;;1.65;1.50;;;;;;;;;;10407540;28;20029;-62
2022/09/26 02:59:00;;;;;;;1.10;1.08;;;;;;;;;;10368737;28;20034;-62
2022/09/26 03:04:01;;;;;;;1.98;1.33;;;;;;;;;;10407425;28;20124;-61
2022/09/26 03:09:03;;;;;;;1.90;1.33;;;;;;;;;;10408016;28;20022;-62
2022/09/26 03:14:04;;;;;;;2.63;1.30;;;;;;;;;;10392776;28;20482;-62
2022/09/26 03:19:37;;;;;;;3.50;1.40;;;;;;;;;;10406698;28;20121;-62
2022/09/26 03:24:41;;;;;;;2.80;1.60;;;;;;;;;;10397444;28;20033;-62
2022/09/26 03:29:42;;;;;;;1.70;1.40;;;;;;;;;;10397660;28;20508;-62
2022/09/26 03:34:43;;;;;;;2.03;1.30;;;;;;;;;;10406638;28;20038;-62
2022/09/26 03:39:44;;;;;;;1.55;1.20;;;;;;;;;;10407371;28;20041;-62
2022/09/26 03:44:45;;;;;;;2.28;1.85;;;;;;;;;;10405159;28;20056;-62
2022/09/26 03:49:45;;;;;;;1.88;1.48;;;;;;;;;;10405943;28;20034;-59
2022/09/26 03:54:46;;;;;;;1.77;1.38;;;;;;;;;;10408349;28;20034;-62
2022/09/26 03:59:48;;;;;;;3.13;1.50;;;;;;;;;;10415683;28;20084;-62
2022/09/26 04:04:49;;;;;;;1.75;1.65;;;;;;;;;;10414576;28;20049;-61
2022/09/26 04:09:49;;;;;;;1.58;1.48;;;;;;;;;;10414534;28;20033;-62
2022/09/26 04:14:51;;;;;;;3.25;1.70;;;;;;;;;;10400553;28;20440;-63
2022/09/26 04:19:52;;;;;;;2.25;1.63;;;;;;;;;;10413917;28;20061;-62
2022/09/26 04:24:53;;;;;;;3.53;1.98;;;;;;;;;;10413677;28;20018;-63
2022/09/26 04:29:56;;;;;;;4.45;1.90;;;;;;;;;;10413564;28;20059;-62
2022/09/26 04:34:56;;;;;;;2.45;1.55;;;;;;;;;;10413437;28;20029;-60
2022/09/26 04:39:57;;;;;;;2.17;1.40;;;;;;;;;;10413059;28;20040;-62
2022/09/26 04:44:57;;;;;;;1.77;1.65;;;;;;;;;;10413155;28;20025;-61
2022/09/26 04:49:58;;;;;;;2.47;1.52;;;;;;;;;;10413090;28;20033;-63
2022/09/26 04:54:58;;;;;;;1.75;1.45;;;;;;;;;;10412701;28;20025;-62
2022/09/26 04:59:59;;;;;;;1.73;1.55;;;;;;;;;;10412457;28;20473;-62
2022/09/26 05:05:00;;;;;;;1.70;1.60;;;;;;;;;;10411799;28;20493;-62
2022/09/26 05:10:00;;;;;;;3.33;1.50;;;;;;;;;;10373048;28;20029;-62
2022/09/26 05:15:04;;;;;;;1.85;1.40;;;;;;;;;;10404101;28;20048;-62
2022/09/26 05:20:09;;;;;;;4.82;2.00;;;;;;;;;;10399364;28;20057;-61
2022/09/26 05:30:30;;;;;;;2.75;1.60;;;;;;;;;;10410235;28;20188;-62
2022/09/26 05:35:34;;;;;;;1.55;1.45;;;;;;;;;;10411278;28;20032;-65
2022/09/26 05:45:59;;;;;;;4.00;1.75;;;;;;;;;;10411467;28;20045;-65
2022/09/26 05:51:05;;;;;;;4.10;1.80;;;;;;;;;;10407052;28;20091;-65
2022/09/26 05:56:07;;;;;;;4.28;2.50;;;;;;;;;;10408334;28;20041;-63
2022/09/26 06:01:14;;;;;;;2.38;1.75;;;;;;;;;;10410410;28;20034;-60
2022/09/26 06:06:17;;;;;;;3.35;2.35;;;;;;;;;;10408122;28;20042;-65
2022/09/26 06:11:26;;;;;;;6.63;2.40;;;;;;;;;;10401548;28;20121;-63
2022/09/26 06:16:27;;;;;;;4.80;2.20;;;;;;;;;;10402208;28;20068;-58
2022/09/26 06:21:28;;;;;;;5.50;2.40;;;;;;;;;;10407966;28;20469;-60
2022/09/26 06:26:29;;;;;;;8.02;2.63;;;;;;;;;;10409650;28;20025;-58
2022/09/26 06:31:29;;;;;;;11.70;2.90;;;;;;;;;;10408569;28;20021;-59
2022/09/26 06:36:30;;;;;;;5.78;2.42;;;;;;;;;;10408843;28;20032;-58
2022/09/26 06:41:31;;;;;;;3.78;2.42;;;;;;;;;;10408028;28;20034;-58
2022/09/26 06:46:31;;;;;;;3.13;2.25;;;;;;;;;;10408479;28;20040;-58
2022/09/26 06:51:32;;;;;;;6.20;2.95;;;;;;;;;;10407869;28;20037;-58
2022/09/26 06:56:32;;;;;;;5.80;2.30;;;;;;;;;;10397312;28;20392;-64
2022/09/26 07:01:33;;;;;;;4.28;2.17;;;;;;;;;;10407893;28;20036;-58
2022/09/26 07:06:34;;;;;;;5.43;2.97;;;;;;;;;;10407725;28;20562;-57
2022/09/26 07:11:34;;;;;;;6.55;1.95;;;;;;;;;;10400082;28;20034;-58
2022/09/26 07:16:35;;;;;;;5.05;2.42;;;;;;;;;;10401046;28;20037;-58
2022/09/26 07:21:35;;;;;;;3.15;2.20;;;;;;;;;;10395111;28;20037;-58
2022/09/26 07:26:36;;;;;;;6.85;2.25;;;;;;;;;;10406687;28;20022;-58
2022/09/26 07:31:37;;;;;;;4.18;2.25;;;;;;;;;;10410279;28;20041;-56
2022/09/26 07:36:39;;;;;;;4.88;2.40;;;;;;;;;;10399682;28;20377;-59
2022/09/26 07:41:41;;;;;;;5.60;2.22;;;;;;;;;;10408505;28;20033;-58
2022/09/26 07:52:01;;;;;;;5.05;2.42;;;;;;;;;;10414747;28;20030;-56
2022/09/26 07:57:03;;;;;;;3.97;2.13;;;;;;;;;;10414867;28;20408;-64
2022/09/26 08:02:04;;;;;;;2.67;2.15;;;;;;;;;;10414256;28;20091;-57
2022/09/26 08:07:06;;;;;;;4.82;1.88;;;;;;;;;;10403401;28;20091;-63
2022/09/26 08:12:07;;;;;;;4.28;1.98;;;;;;;;;;10390939;28;20038;-58
2022/09/26 08:17:07;;;;;;;4.53;2.15;;;;;;;;;;10411686;28;20049;-59
2022/09/26 08:22:08;;;;;;;5.57;2.40;;;;;;;;;;10413576;28;20037;-59
2022/09/26 08:27:09;;;;;;;4.22;2.28;;;;;;;;;;10413522;28;20030;-59
2022/09/26 08:32:10;;;;;;;4.88;2.10;;;;;;;;;;10387352;28;20034;-57
2022/09/26 08:37:11;;;;;;;4.45;2.25;;;;;;;;;;10393353;28;20033;-58
2022/09/26 08:42:32;;;;;;;3.03;2.00;;;;;;;;;;10406097;28;20022;-58
2022/09/26 08:47:52;;;;;;;2.65;1.90;;;;;;;;;;10390223;28;20071;-55
2022/09/26 08:53:28;;;;;;;2.63;2.17;;;;;;;;;;10406496;28;20489;-60
2022/09/26 08:58:44;;;;;;;4.25;2.25;;;;;;;;;;10401830;28;20042;-58
2022/09/26 09:04:00;;;;;;;3.30;1.83;;;;;;;;;;10407297;28;20048;-58
2022/09/26 09:09:00;;;;;;;3.42;2.03;;;;;;;;;;10399015;28;20132;-58
2022/09/26 09:14:25;;;;;;;3.35;2.50;;;;;;;;;;10407608;28;20057;-60
2022/09/26 09:20:12;;;;;;;2.72;2.22;;;;;;;;;;10400897;28;20224;-58
2022/09/26 09:25:27;;;;;;;2.67;2.20;;;;;;;;;;10390913;28;20075;-57
2022/09/26 09:30:39;;;;;;;5.13;1.90;;;;;;;;;;10403988;28;20033;-57
2022/09/26 09:35:58;;;;;;;2.72;1.92;;;;;;;;;;10420922;28;20044;-58
2022/09/26 09:41:16;;;;;;;;;;;;;;;;;;10397474;28;20037;-55
2022/09/26 09:46:27;;;;;;;;;;;;;;;;;;10407333;28;19923;-56
2022/09/26 09:51:59;;;;;;;4.03;2.15;;;;;;;;;;10407095;28;19917;-59
2022/09/26 09:57:14;;;;;;;2.03;1.90;;;;;;;;;;10396129;28;20025;-59
2022/09/26 10:02:45;;;;;;;2.13;1.95;;;;;;;;;;10404081;28;20079;-57
2022/09/26 10:07:49;;;;;;;2.78;2.20;;;;;;;;;;10397291;28;20388;-58
2022/09/26 10:12:50;;;;;;;2.72;2.33;;;;;;;;;;10389142;28;20022;-59
2022/09/26 10:18:10;;;;;;;5.45;2.78;;;;;;;;;;10391994;28;20025;-59
2022/09/26 10:23:25;;;;;;;2.97;2.38;;;;;;;;;;10407208;28;20061;-57
2022/09/26 10:28:51;;;;;;;5.78;2.25;;;;;;;;;;10400862;28;20064;-55
2022/09/26 10:33:58;;;;;;;4.10;2.63;;;;;;;;;;10407398;28;20033;-58
2022/09/26 10:44:42;;;;;;;3.53;2.83;;;;;;;;;;10395807;28;20065;-57
2022/09/26 10:50:01;;;;;;;4.53;2.47;;;;;;;;;;10402234;28;20385;-57
2022/09/26 10:55:25;;;;;;;3.75;2.60;;;;;;;;;;10406895;28;20033;-59
2022/09/26 11:00:32;;;;;;;6.13;2.50;;;;;;;;;;10392887;28;20033;-56
2022/09/26 11:05:57;;;;;;;2.45;2.25;;;;;;;;;;10385436;28;20040;-56
2022/09/26 11:11:10;;;;;;;2.92;2.50;;;;;;;;;;10399141;28;20065;-58
2022/09/26 11:16:18;;;;;;;7.75;2.20;;;;;;;;;;10404791;28;20128;-60
2022/09/26 11:21:42;;;;;;;4.00;2.50;;;;;;;;;;10406665;28;20022;-63
2022/09/26 11:27:10;;;;;;;2.67;2.47;;;;;;;;;;10399434;28;20025;-59
2022/09/26 11:32:39;;;;;;;2.83;2.63;;;;;;;;;;10402656;28;20093;-61
2022/09/26 11:38:06;;;;;;;3.50;2.40;;;;;;;;;;10391064;28;20031;-57
2022/09/26 11:43:43;;;;;;;3.00;2.70;;;;;;;;;;10390965;28;20049;-60
2022/09/26 11:49:17;;;;;;;2.72;2.53;;;;;;;;;;10385383;28;20115;-58
2022/09/26 11:54:40;;;;;;;2.50;2.30;;;;;;;;;;10397310;28;20033;-59
2022/09/26 12:00:01;;;;;;;5.60;2.40;;;;;;;;;;10387308;28;20030;-58
2022/09/26 12:05:39;;;;;;;3.13;2.40;;;;;;;;;;10388282;28;20038;-55
2022/09/26 12:10:49;;;;;;;3.47;2.30;;;;;;;;;;10399324;28;20037;-58
2022/09/26 12:16:05;;;;;;;4.00;2.50;;;;;;;;;;10393288;28;20044;-57
2022/09/26 12:21:32;;;;;;;2.25;2.13;;;;;;;;;;10411567;28;20513;-55
2022/09/26 12:27:34;;;;;;;4.32;2.20;;;;;;;;;;10411290;28;20435;-56
2022/09/26 12:32:54;;;;;;;2.22;2.00;;;;;;;;;;10226521;29;20035;-62
2022/09/26 12:38:20;;;;;;;3.65;2.20;;;;;;;;;;10236193;29;20105;-58
2022/09/26 12:43:52;;;;;;;4.90;2.50;;;;;;;;;;10229382;29;20040;-58
2022/09/26 12:49:36;;;;;;;6.00;2.15;;;;;;;;;;10239614;29;20043;-59
2022/09/26 12:55:03;;;;;;;2.67;2.05;;;;;;;;;;10223548;29;20490;-58
2022/09/26 13:00:21;;;;;;;4.95;2.22;;;;;;;;;;10263538;28;20041;-61
2022/09/26 13:06:10;;;;;;;5.80;2.67;;;;;;;;;;10396701;28;20041;-64
2022/09/26 13:11:36;;;;;;;2.22;1.73;;;;;;;;;;10385459;28;20050;-58
2022/09/26 13:16:48;;;;;;;3.65;2.00;;;;;;;;;;10364011;28;20545;-58
2022/09/26 13:21:59;;;;;;;7.65;2.40;;;;;;;;;;10366109;28;20057;-60
2022/09/26 13:27:19;;;;;;;4.28;2.58;;;;;;;;;;10365336;28;20014;-62
2022/09/26 13:33:20;;;;;;;2.28;2.05;;;;;;;;;;10360210;28;20049;-63
2022/09/26 13:38:33;;;;;;;2.80;1.88;;;;;;;;;;10367066;28;20489;-63
2022/09/26 13:44:02;;;;;;;3.70;2.15;;;;;;;;;;10368599;28;20101;-64
2022/09/26 13:49:17;;;;;;;3.15;1.77;;;;;;;;;;10360758;28;20034;-63
2022/09/26 13:54:28;;;;;;;2.40;2.20;;;;;;;;;;10367002;28;20492;-61
2022/09/26 13:59:50;;;;;;;2.40;2.10;;;;;;;;;;10349955;28;20473;-59
2022/09/26 14:05:25;;;;;;;2.67;2.15;;;;;;;;;;10363108;28;20026;-58
2022/09/26 14:10:26;;;;;;;5.78;1.83;;;;;;;;;;10347416;28;20072;-58
2022/09/26 14:15:49;;;;;;;2.47;2.03;;;;;;;;;;10368434;28;20046;-58
2022/09/26 14:21:01;;;;;;;3.03;1.88;;;;;;;;;;10365418;28;20528;-58
2022/09/26 14:26:41;;;;;;;2.78;2.03;;;;;;;;;;10366113;28;20032;-58
2022/09/26 14:32:22;;;;;;;2.95;1.90;;;;;;;;;;10359295;28;20121;-58
2022/09/26 14:37:23;;;;;;;2.20;1.52;;;;;;;;;;10360693;28;20120;-58
2022/09/26 14:42:45;;;;;;;2.88;2.10;;;;;;;;;;10363120;28;20042;-58
2022/09/26 14:48:11;;;;;;;3.55;2.00;;;;;;;;;;10357682;28;20111;-64
2022/09/26 14:53:47;;;;;;;1.85;1.67;;;;;;;;;;10344982;28;21252;-59
2022/09/26 14:58:50;;;;;;;2.35;1.90;;;;;;;;;;10363061;28;20037;-60
2022/09/26 15:04:08;;;;;;;3.20;1.70;;;;;;;;;;10360321;28;20112;-58
2022/09/26 15:09:17;;;;;;;2.13;1.80;;;;;;;;;;10360244;28;20050;-64
2022/09/26 15:14:37;;;;;;;2.65;2.00;;;;;;;;;;10361990;28;20489;-58
2022/09/26 15:19:51;;;;;;;2.05;1.85;;;;;;;;;;10358140;28;20101;-59
2022/09/26 15:25:29;;;;;;;2.58;1.90;;;;;;;;;;10356373;28;20049;-63
2022/09/26 15:30:36;;;;;;;3.03;1.77;;;;;;;;;;10365367;28;20426;-59
2022/09/26 15:35:36;;;;;;;2.55;1.70;;;;;;;;;;10360042;28;20189;-60
2022/09/26 15:40:37;;;;;;;1.90;1.70;;;;;;;;;;10364618;28;20216;-58
2022/09/26 15:45:57;;;;;;;3.33;1.80;;;;;;;;;;10364635;28;20401;-58
2022/09/26 15:51:13;;;;;;;2.45;1.80;;;;;;;;;;10367029;28;20041;-58
2022/09/26 15:56:23;;;;;;;4.40;1.63;;;;;;;;;;10372058;28;20040;-59
2022/09/26 16:01:28;;;;;;;2.70;1.92;;;;;;;;;;10361595;28;20040;-59
2022/09/26 16:06:33;;;;;;;2.10;1.55;;;;;;;;;;10372296;28;20021;-58
2022/09/26 16:11:59;;;;;;;2.13;1.92;;;;;;;;;;10372065;28;20113;-59
2022/09/26 16:17:31;;;;;;;2.97;1.55;;;;;;;;;;10372225;28;20508;-58
2022/09/26 16:22:45;;;;;;;2.40;1.60;;;;;;;;;;10330933;28;20057;-58
2022/09/26 16:27:57;;;;;;;2.88;1.80;;;;;;;;;;10366980;28;20292;-58
2022/09/26 16:33:06;;;;;;;1.48;1.38;;;;;;;;;;10370758;28;20112;-59
2022/09/26 16:38:27;;;;;;;1.75;1.65;;;;;;;;;;10361206;28;20599;-58
2022/09/26 16:43:30;;;;;;;2.40;1.75;;;;;;;;;;10371131;28;20030;-58
2022/09/26 16:48:48;;;;;;;1.70;1.58;;;;;;;;;;10370333;28;20648;-58
2022/09/26 16:54:07;;;;;;;3.55;1.70;;;;;;;;;;10370504;28;20028;-58
2022/09/26 16:59:27;;;;;;;2.33;1.50;;;;;;;;;;10371004;28;20133;-58
2022/09/26 17:04:34;;;;;;;1.70;1.60;;;;;;;;;;10383307;28;20458;-58
2022/09/26 17:09:35;;;;;;;2.83;1.45;;;;;;;;;;10385219;28;20096;-58
2022/09/26 17:14:40;;;;;;;4.18;1.70;;;;;;;;;;10366155;28;20073;-58
2022/09/26 17:19:43;;;;;;;1.95;1.80;;;;;;;;;;10371324;28;20476;-58
2022/09/26 17:24:46;;;;;;;3.10;2.00;;;;;;;;;;10376421;28;20030;-58
2022/09/26 17:29:50;;;;;;;2.17;1.50;;;;;;;;;;10360672;28;20470;-58
2022/09/26 17:34:51;;;;;;;2.35;1.77;;;;;;;;;;10364184;28;20455;-58
2022/09/26 17:39:53;;;;;;;2.28;1.85;;;;;;;;;;10367889;28;20034;-58
2022/09/26 17:44:54;;;;;;;3.15;1.67;;;;;;;;;;10362761;28;20166;-58
2022/09/26 17:49:56;;;;;;;3.40;1.88;;;;;;;;;;10361379;28;20022;-60
2022/09/26 17:55:01;;;;;;;3.40;1.55;;;;;;;;;;10362300;28;20434;-58
2022/09/26 18:00:06;;;;;;;2.55;1.65;;;;;;;;;;10360687;28;20042;-58
2022/09/26 18:05:29;;;;;;;3.17;2.05;;;;;;;;;;10367836;28;20017;-58
2022/09/26 18:10:33;;;;;;;2.63;1.63;;;;;;;;;;10368146;28;20444;-58
2022/09/26 18:15:34;;;;;;;2.33;1.75;;;;;;;;;;10360326;28;20046;-57
2022/09/26 18:20:39;;;;;;;2.13;1.92;;;;;;;;;;10348767;28;20041;-58
2022/09/26 18:25:40;;;;;;;4.95;2.25;;;;;;;;;;10354591;28;20036;-57
2022/09/26 18:30:46;;;;;;;3.22;2.13;;;;;;;;;;10376162;28;20029;-57
2022/09/26 18:35:49;;;;;;;3.35;2.47;;;;;;;;;;10360345;28;20109;-58
2022/09/26 18:40:57;;;;;;;6.15;2.42;;;;;;;;;;10356783;28;20393;-57
2022/09/26 18:45:57;;;;;;;3.83;2.55;;;;;;;;;;10356930;28;20022;-57
2022/09/26 18:50:59;;;;;;;2.90;1.88;;;;;;;;;;10361865;28;20049;-57
2022/09/26 19:01:38;;;;;;;4.38;2.67;;;;;;;;;;10364316;28;20038;-58
2022/09/26 19:06:45;;;;;;;4.10;2.03;;;;;;;;;;10357060;28;20026;-57
2022/09/26 19:11:47;;;;;;;13.95;2.63;;;;;;;;;;10378965;28;20026;-57
2022/09/26 19:16:48;;;;;;;5.35;2.88;;;;;;;;;;10361125;28;20052;-58
2022/09/26 19:21:55;;;;;;;4.75;2.65;;;;;;;;;;10362369;28;20037;-58
2022/09/26 19:27:03;;;;;;;7.47;3.13;;;;;;;;;;10365699;28;20113;-58
2022/09/26 19:32:06;;;;;;;4.90;2.72;;;;;;;;;;10361899;28;20076;-57
2022/09/26 19:37:09;;;;;;;3.92;2.83;;;;;;;;;;10372686;28;20026;-57
2022/09/26 19:42:10;;;;;;;3.40;2.65;;;;;;;;;;10370777;28;20345;-58
2022/09/26 19:47:22;;;;;;;6.13;2.70;;;;;;;;;;10371837;28;20048;-58
2022/09/26 19:52:23;;;;;;;4.30;2.90;;;;;;;;;;10368329;28;20608;-57
2022/09/26 19:57:23;;;;;;;5.65;2.72;;;;;;;;;;10372836;28;20111;-58
2022/09/26 20:02:31;;;;;;;3.28;2.63;;;;;;;;;;10372866;28;20036;-57
2022/09/26 20:07:31;;;;;;;4.30;2.75;;;;;;;;;;10370481;28;20041;-57
2022/09/26 20:12:32;;;;;;;6.45;2.72;;;;;;;;;;10373471;28;20029;-58
2022/09/26 20:17:33;;;;;;;9.65;2.97;;;;;;;;;;10370936;28;20054;-57
2022/09/26 20:22:34;;;;;;;3.50;2.92;;;;;;;;;;10369508;28;20025;-58
2022/09/26 20:27:34;;;;;;;9.30;4.15;;;;;;;;;;10367910;28;20026;-57
2022/09/26 20:32:35;;;;;;;5.35;3.50;;;;;;;;;;10371162;28;20065;-56
2022/09/26 20:37:39;;;;;;;3.55;2.88;;;;;;;;;;10371197;28;20041;-58
2022/09/26 20:42:43;;;;;;;5.25;3.20;;;;;;;;;;10371527;28;20528;-58
2022/09/26 20:47:44;;;;;;;13.98;3.83;;;;;;;;;;10370554;28;20064;-56
2022/09/26 20:52:45;;;;;;;5.60;3.28;;;;;;;;;;10371469;28;20034;-59
2022/09/26 20:57:46;;;;;;;13.35;2.97;;;;;;;;;;10370295;28;20038;-58
2022/09/26 21:02:51;;;;;;;5.28;2.75;;;;;;;;;;10370038;28;20036;-58
2022/09/26 21:07:53;;;;;;;15.80;3.83;;;;;;;;;;10368404;28;20496;-57
2022/09/26 21:12:54;;;;;;;12.05;3.97;;;;;;;;;;10354959;28;20521;-61
2022/09/26 21:17:56;;;;;;;10.93;3.50;;;;;;;;;;10365526;28;20058;-61
2022/09/26 21:22:58;;;;;;;8.70;3.30;;;;;;;;;;10351507;28;20424;-65
2022/09/26 21:28:12;;;;;;;8.13;3.35;;;;;;;;;;10355719;28;20638;-61
2022/09/26 21:33:13;;;;;;;8.50;3.20;;;;;;;;;;10358097;28;20390;-58
2022/09/26 21:38:14;;;;;;;10.27;2.60;;;;;;;;;;10367802;28;20022;-62
2022/09/26 21:43:19;;;;;;;3.70;2.35;;;;;;;;;;10367732;28;20046;-58
2022/09/26 21:48:20;;;;;;;5.72;2.60;;;;;;;;;;10367266;28;20033;-57
2022/09/26 21:53:27;;;;;;;6.32;2.40;;;;;;;;;;10367457;28;20481;-58
2022/09/26 21:58:35;;;;;;;8.20;2.50;;;;;;;;;;10366131;28;20113;-58
2022/09/26 22:03:36;;;;;;;7.13;2.60;;;;;;;;;;10367287;28;20039;-58
2022/09/26 22:08:38;;;;;;;5.70;2.50;;;;;;;;;;10365793;28;20049;-57
2022/09/26 22:13:39;;;;;;;13.40;2.53;;;;;;;;;;10363240;28;20046;-58
2022/09/26 22:18:40;;;;;;;8.50;2.45;;;;;;;;;;10364970;28;20056;-61
2022/09/26 22:23:40;;;;;;;6.82;2.45;;;;;;;;;;10365596;28;20046;-64
2022/09/26 22:28:41;;;;;;;5.45;2.55;;;;;;;;;;10366657;28;20078;-65
2022/09/26 22:33:42;;;;;;;8.68;2.22;;;;;;;;;;10366177;28;20018;-64
2022/09/26 22:38:42;;;;;;;7.38;2.97;;;;;;;;;;10366690;28;20043;-63
2022/09/26 22:43:43;;;;;;;4.65;2.08;;;;;;;;;;10365976;28;20088;-63
2022/09/26 22:48:45;;;;;;;3.50;2.40;;;;;;;;;;10367132;28;20029;-64
2022/09/26 22:53:46;;;;;;;7.00;2.20;;;;;;;;;;10367498;28;20045;-64
2022/09/26 22:58:50;;;;;;;4.32;2.13;;;;;;;;;;10367089;28;20045;-63
2022/09/26 23:03:53;;;;;;;3.78;2.17;;;;;;;;;;10363438;28;20040;-57
2022/09/26 23:08:54;;;;;;;7.88;2.30;;;;;;;;;;10358736;28;20117;-58
2022/09/26 23:13:55;;;;;;;5.28;2.35;;;;;;;;;;10361001;28;20068;-58
2022/09/26 23:18:56;;;;;;;5.28;2.47;;;;;;;;;;10357140;28;20528;-58
2022/09/26 23:23:57;;;;;;;6.97;2.50;;;;;;;;;;10362636;28;20496;-58
2022/09/26 23:28:58;;;;;;;6.03;2.60;;;;;;;;;;10352586;28;20041;-58
2022/09/26 23:33:59;;;;;;;3.17;2.33;;;;;;;;;;10366428;28;20088;-64
2022/09/26 23:38:59;;;;;;;5.47;2.42;;;;;;;;;;10364851;28;20033;-65
2022/09/26 23:44:01;;;;;;;2.80;2.20;;;;;;;;;;10359695;28;20023;-65
2022/09/26 23:49:01;;;;;;;7.70;2.85;;;;;;;;;;10357215;28;20018;-65
2022/09/26 23:54:02;;;;;;;7.55;2.20;;;;;;;;;;10362745;28;20489;-65
2022/09/26 23:59:03;;;;;;;4.40;2.33;;;;;;;;;;10363027;28;20027;-64
